Satori — WDC4937 — position and weather

sailwx.info

Track history (hours):
 
Tides and Currents Weather Stations Pressure Air Temp Water Temp Dewpoint Dewpoint Depression Visibility Wind Speed Wind Dir Waves Ship Positions

Satori

More information available from US FCC via Universal Licensing System and Coast Guard Vessel Documentation Center.

Last reported at 2014-Jul-20 17:32 UTC. Time now 2014-Jul-25 16:00 UTC.
Position N 40°58' W 073°29'.

Length 13 m.

Type: Sailing vessel. MMSI: 367033160.

Date/timePositionNaut miles runAvg speedWind from/ knotsBaromVisibWave heightAir tempDewpointWater temp
2014-Jul-20 17:32N 40°58' W 073°29'2 0.1
2014-Jul-19 22:31N 40°57' W 073°27'  
2014-Jul-12 17:32N 40°59' W 073°30'7 2.1
2014-Jul-12 14:17N 40°53' W 073°25'0 0.0
2014-Jul-12 13:29N 40°53' W 073°25'0 0.0
2014-Jul-12 12:29N 40°53' W 073°25'0 0.0
2014-Jul-12 11:17N 40°53' W 073°25'0 0.0
2014-Jul-12 10:23N 40°53' W 073°25'0 0.0
2014-Jul-12 09:17N 40°53' W 073°25'0 0.0
2014-Jul-12 08:11N 40°53' W 073°25'0 0.0
2014-Jul-12 07:32N 40°53' W 073°25'0 0.0
2014-Jul-12 01:20N 40°53' W 073°25'0 0.0
2014-Jul-12 00:20N 40°53' W 073°25'6 1.2
2014-Jul-11 19:13N 40°59' W 073°23'4 5.2
2014-Jul-11 18:28N 41°01' W 073°19'5 5.1
2014-Jul-11 17:33N 41°04' W 073°14'6 4.9
2014-Jul-11 16:24N 41°07' W 073°08'4 4.5
2014-Jul-11 15:31N 41°11' W 073°07'0 0.1
2014-Jul-11 14:27N 41°11' W 073°07'0 0.0
2014-Jul-11 13:33N 41°11' W 073°07'0 0.0
2014-Jul-11 12:30N 41°11' W 073°07'0 0.0
2014-Jul-11 11:33N 41°11' W 073°07'0 0.0
2014-Jul-11 10:30N 41°11' W 073°07'0 0.0
2014-Jul-11 09:30N 41°11' W 073°07'0 0.0
2014-Jul-11 08:30N 41°11' W 073°07'0 0.0
2014-Jul-11 07:33N 41°11' W 073°07'0 0.0
2014-Jul-11 06:21N 41°11' W 073°07'0 0.0
2014-Jul-11 05:30N 41°11' W 073°07'0 0.0
2014-Jul-11 04:33N 41°11' W 073°07'0 0.0
2014-Jul-11 03:33N 41°11' W 073°07'0 0.0
2014-Jul-11 02:27N 41°11' W 073°07'0 0.0
2014-Jul-11 01:15N 41°11' W 073°07'0 0.0
2014-Jul-11 00:21N 41°11' W 073°07'0 0.0
2014-Jul-10 22:06N 41°11' W 073°07'0 0.0
2014-Jul-10 21:33N 41°11' W 073°07'0 0.0
2014-Jul-10 20:27N 41°11' W 073°07'0 0.4
2014-Jul-10 19:33N 41°11' W 073°07'4 4.3
2014-Jul-10 18:33N 41°10' W 073°02'6 6.1
2014-Jul-10 17:33N 41°12' W 072°54'  
Track history (hours):
 
Tides and Currents Weather Stations Pressure Air Temp Water Temp Dewpoint Dewpoint Depression Visibility Wind Speed Wind Dir Waves Ship Positions

Satori

More information available from US FCC via Universal Licensing System and Coast Guard Vessel Documentation Center.

Last reported at 2014-Jul-20 17:32 UTC. Time now 2014-Jul-25 16:00 UTC.
Position N 40°58' W 073°29'.

Length 13 m.

Type: Sailing vessel. MMSI: 367033160.

Date/timePositionNaut miles runAvg speedWind from/ knotsBaromVisibWave heightAir tempDewpointWater temp
2014-Jul-20 17:32N 40°58' W 073°29'2 0.1
2014-Jul-19 22:31N 40°57' W 073°27'  
2014-Jul-12 17:32N 40°59' W 073°30'7 2.1
2014-Jul-12 14:17N 40°53' W 073°25'0 0.0
2014-Jul-12 13:29N 40°53' W 073°25'0 0.0
2014-Jul-12 12:29N 40°53' W 073°25'0 0.0
2014-Jul-12 11:17N 40°53' W 073°25'0 0.0
2014-Jul-12 10:23N 40°53' W 073°25'0 0.0
2014-Jul-12 09:17N 40°53' W 073°25'0 0.0
2014-Jul-12 08:11N 40°53' W 073°25'0 0.0
2014-Jul-12 07:32N 40°53' W 073°25'0 0.0
2014-Jul-12 01:20N 40°53' W 073°25'0 0.0
2014-Jul-12 00:20N 40°53' W 073°25'6 1.2
2014-Jul-11 19:13N 40°59' W 073°23'4 5.2
2014-Jul-11 18:28N 41°01' W 073°19'5 5.1
2014-Jul-11 17:33N 41°04' W 073°14'6 4.9
2014-Jul-11 16:24N 41°07' W 073°08'4 4.5
2014-Jul-11 15:31N 41°11' W 073°07'0 0.1
2014-Jul-11 14:27N 41°11' W 073°07'0 0.0
2014-Jul-11 13:33N 41°11' W 073°07'0 0.0
2014-Jul-11 12:30N 41°11' W 073°07'0 0.0
2014-Jul-11 11:33N 41°11' W 073°07'0 0.0
2014-Jul-11 10:30N 41°11' W 073°07'0 0.0
2014-Jul-11 09:30N 41°11' W 073°07'0 0.0
2014-Jul-11 08:30N 41°11' W 073°07'0 0.0
2014-Jul-11 07:33N 41°11' W 073°07'0 0.0
2014-Jul-11 06:21N 41°11' W 073°07'0 0.0
2014-Jul-11 05:30N 41°11' W 073°07'0 0.0
2014-Jul-11 04:33N 41°11' W 073°07'0 0.0
2014-Jul-11 03:33N 41°11' W 073°07'0 0.0
2014-Jul-11 02:27N 41°11' W 073°07'0 0.0
2014-Jul-11 01:15N 41°11' W 073°07'0 0.0
2014-Jul-11 00:21N 41°11' W 073°07'0 0.0
2014-Jul-10 22:06N 41°11' W 073°07'0 0.0
2014-Jul-10 21:33N 41°11' W 073°07'0 0.0
2014-Jul-10 20:27N 41°11' W 073°07'0 0.4
2014-Jul-10 19:33N 41°11' W 073°07'4 4.3
2014-Jul-10 18:33N 41°10' W 073°02'6 6.1
2014-Jul-10 17:33N 41°12' W 072°54'  

Dump ship's entire track history